CheckWX is a tool to help pilots better visualize weather data.  It is not intended as a substitute for an official pre-flight weather briefing.

03:32:51 UTC

SCEL METAR
Comodoro Arturo Merino Benítez International Airport
Santiago, Chile
Current

33 mins ago

SCEL 220300Z 03005KT CAVOK 04/03 Q1022 NOSIG
Observed
Jul-22 @ 03:00 UTC
Wind
  • 030° at 5 KTS
Visibility
10,000+ meters
Flight Rules
VFR
Cloud Levels
  • Clear skies
Temperature
C / 39°F
Dewpoint
C / 37°F
Humidity
93%
Altimeter
30.18" Hg
Pressure
1021.92 hPa
Previous

2 hours ago

SCEL 220200Z 02006KT 9999 SCT050 05/04 Q1022 NOSIG
Observed
Jul-22 @ 02:00 UTC
Wind
  • 020° at 6 KTS
Visibility
10,000+ meters
Flight Rules
VFR
Cloud Levels
  • Scattered at 5,000' AGL
Temperature
C / 41°F
Dewpoint
C / 39°F
Humidity
93%
Altimeter
30.18" Hg
Pressure
1021.92 hPa
Previous

3 hours ago

SCEL 220100Z 33004KT 9999 SCT020 BKN050 05/04 Q1023 NOSIG
Observed
Jul-22 @ 01:00 UTC
Wind
  • 330° at 4 KTS
Visibility
10,000+ meters
Flight Rules
VFR
Cloud Levels
  • Scattered at 2,000' AGL
  • Broken at 5,000' AGL
Temperature
C / 41°F
Dewpoint
C / 39°F
Humidity
93%
Altimeter
30.21" Hg
Pressure
1022.92 hPa